sensor_id;sensor_type;location;lat;lon;timestamp;temperature;humidity
34768;DHT22;21755;43.608;1.236;2023-04-03T00:00:03;9.20;99.90
34768;DHT22;21755;43.608;1.236;2023-04-03T00:02:29;9.20;99.90
34768;DHT22;21755;43.608;1.236;2023-04-03T00:04:55;9.20;99.90
34768;DHT22;21755;43.608;1.236;2023-04-03T00:07:21;9.20;99.90
34768;DHT22;21755;43.608;1.236;2023-04-03T00:09:47;9.10;99.90
34768;DHT22;21755;43.608;1.236;2023-04-03T00:12:12;9.20;99.90
34768;DHT22;21755;43.608;1.236;2023-04-03T00:14:38;9.10;99.90
34768;DHT22;21755;43.608;1.236;2023-04-03T00:17:04;9.10;99.90
34768;DHT22;21755;43.608;1.236;2023-04-03T00:19:29;9.10;99.90
34768;DHT22;21755;43.608;1.236;2023-04-03T00:21:55;9.10;99.90
34768;DHT22;21755;43.608;1.236;2023-04-03T00:24:21;9.10;99.90
34768;DHT22;21755;43.608;1.236;2023-04-03T00:26:46;9.10;99.90
34768;DHT22;21755;43.608;1.236;2023-04-03T00:29:12;9.10;99.90
34768;DHT22;21755;43.608;1.236;2023-04-03T00:31:38;9.10;99.90
34768;DHT22;21755;43.608;1.236;2023-04-03T00:34:03;9.10;99.90
34768;DHT22;21755;43.608;1.236;2023-04-03T00:36:29;9.10;99.90
34768;DHT22;21755;43.608;1.236;2023-04-03T00:38:55;9.10;99.90
34768;DHT22;21755;43.608;1.236;2023-04-03T00:41:21;9.10;99.90
34768;DHT22;21755;43.608;1.236;2023-04-03T00:43:46;9.10;99.90
34768;DHT22;21755;43.608;1.236;2023-04-03T00:46:12;9.10;99.90
34768;DHT22;21755;43.608;1.236;2023-04-03T00:48:42;9.10;99.90
34768;DHT22;21755;43.608;1.236;2023-04-03T00:51:13;9.10;99.90
34768;DHT22;21755;43.608;1.236;2023-04-03T00:53:41;9.10;99.90
34768;DHT22;21755;43.608;1.236;2023-04-03T00:56:09;9.10;99.90
34768;DHT22;21755;43.608;1.236;2023-04-03T00:58:37;9.00;99.90
34768;DHT22;21755;43.608;1.236;2023-04-03T01:01:07;9.00;99.90
34768;DHT22;21755;43.608;1.236;2023-04-03T01:03:33;9.00;99.90
34768;DHT22;21755;43.608;1.236;2023-04-03T01:05:59;9.00;99.90
34768;DHT22;21755;43.608;1.236;2023-04-03T01:08:25;9.00;99.90
34768;DHT22;21755;43.608;1.236;2023-04-03T01:10:50;9.00;99.90
34768;DHT22;21755;43.608;1.236;2023-04-03T01:13:18;9.00;99.90
34768;DHT22;21755;43.608;1.236;2023-04-03T01:15:44;9.00;99.90
34768;DHT22;21755;43.608;1.236;2023-04-03T01:18:09;9.00;99.90
34768;DHT22;21755;43.608;1.236;2023-04-03T01:25:43;8.90;99.90
34768;DHT22;21755;43.608;1.236;2023-04-03T01:28:11;8.90;99.90
34768;DHT22;21755;43.608;1.236;2023-04-03T01:30:40;8.90;99.90
34768;DHT22;21755;43.608;1.236;2023-04-03T01:33:08;8.90;99.90
34768;DHT22;21755;43.608;1.236;2023-04-03T01:35:34;8.80;99.90
34768;DHT22;21755;43.608;1.236;2023-04-03T01:37:59;8.80;99.90
34768;DHT22;21755;43.608;1.236;2023-04-03T01:40:25;8.80;99.90
34768;DHT22;21755;43.608;1.236;2023-04-03T01:42:51;8.80;99.90
34768;DHT22;21755;43.608;1.236;2023-04-03T01:45:17;8.80;99.90
34768;DHT22;21755;43.608;1.236;2023-04-03T01:47:42;8.80;99.90
34768;DHT22;21755;43.608;1.236;2023-04-03T01:50:08;8.80;99.90
34768;DHT22;21755;43.608;1.236;2023-04-03T01:52:34;8.80;99.90
34768;DHT22;21755;43.608;1.236;2023-04-03T01:54:59;8.70;99.90
34768;DHT22;21755;43.608;1.236;2023-04-03T01:57:25;8.80;99.90
34768;DHT22;21755;43.608;1.236;2023-04-03T01:59:51;8.70;99.90
34768;DHT22;21755;43.608;1.236;2023-04-03T02:02:17;8.70;99.90
34768;DHT22;21755;43.608;1.236;2023-04-03T02:04:42;8.70;99.90
34768;DHT22;21755;43.608;1.236;2023-04-03T02:07:08;8.70;99.90
34768;DHT22;21755;43.608;1.236;2023-04-03T02:09:34;8.60;99.90
34768;DHT22;21755;43.608;1.236;2023-04-03T02:12:00;8.70;99.90
34768;DHT22;21755;43.608;1.236;2023-04-03T02:14:25;8.70;99.90
34768;DHT22;21755;43.608;1.236;2023-04-03T02:16:52;8.70;99.90
34768;DHT22;21755;43.608;1.236;2023-04-03T02:19:18;8.60;99.90
34768;DHT22;21755;43.608;1.236;2023-04-03T02:21:44;8.60;99.90
34768;DHT22;21755;43.608;1.236;2023-04-03T02:24:10;8.60;99.90
34768;DHT22;21755;43.608;1.236;2023-04-03T02:26:35;8.60;99.90
34768;DHT22;21755;43.608;1.236;2023-04-03T02:29:01;8.60;99.90
34768;DHT22;21755;43.608;1.236;2023-04-03T02:31:27;8.60;99.90
34768;DHT22;21755;43.608;1.236;2023-04-03T02:33:52;8.60;99.90
34768;DHT22;21755;43.608;1.236;2023-04-03T02:36:18;8.60;99.90
34768;DHT22;21755;43.608;1.236;2023-04-03T02:38:44;8.60;99.90
34768;DHT22;21755;43.608;1.236;2023-04-03T02:41:11;8.60;99.90
34768;DHT22;21755;43.608;1.236;2023-04-03T02:43:37;8.60;99.90
34768;DHT22;21755;43.608;1.236;2023-04-03T02:46:03;8.60;99.90
34768;DHT22;21755;43.608;1.236;2023-04-03T02:48:28;8.60;99.90
34768;DHT22;21755;43.608;1.236;2023-04-03T02:50:55;8.60;99.90
34768;DHT22;21755;43.608;1.236;2023-04-03T02:53:20;8.60;99.90
34768;DHT22;21755;43.608;1.236;2023-04-03T02:55:46;8.60;99.90
34768;DHT22;21755;43.608;1.236;2023-04-03T02:58:12;8.60;99.90
34768;DHT22;21755;43.608;1.236;2023-04-03T03:00:37;8.60;99.90
34768;DHT22;21755;43.608;1.236;2023-04-03T03:03:04;8.60;99.90
34768;DHT22;21755;43.608;1.236;2023-04-03T03:05:29;8.60;99.90
34768;DHT22;21755;43.608;1.236;2023-04-03T03:07:55;8.50;99.90
34768;DHT22;21755;43.608;1.236;2023-04-03T03:10:21;8.60;99.90
34768;DHT22;21755;43.608;1.236;2023-04-03T03:12:47;8.60;99.90
34768;DHT22;21755;43.608;1.236;2023-04-03T03:15:12;8.60;99.90
34768;DHT22;21755;43.608;1.236;2023-04-03T03:17:38;8.50;99.90
34768;DHT22;21755;43.608;1.236;2023-04-03T03:20:08;8.50;99.90
34768;DHT22;21755;43.608;1.236;2023-04-03T03:22:34;8.50;99.90
34768;DHT22;21755;43.608;1.236;2023-04-03T03:25:01;8.50;99.90
34768;DHT22;21755;43.608;1.236;2023-04-03T03:27:27;8.50;99.90
34768;DHT22;21755;43.608;1.236;2023-04-03T03:29:53;8.50;99.90
34768;DHT22;21755;43.608;1.236;2023-04-03T03:32:18;8.50;99.90
34768;DHT22;21755;43.608;1.236;2023-04-03T03:34:44;8.50;99.90
34768;DHT22;21755;43.608;1.236;2023-04-03T03:37:10;8.40;99.90
34768;DHT22;21755;43.608;1.236;2023-04-03T03:39:36;8.50;99.90
34768;DHT22;21755;43.608;1.236;2023-04-03T03:42:01;8.50;99.90
34768;DHT22;21755;43.608;1.236;2023-04-03T03:44:27;8.50;99.90
34768;DHT22;21755;43.608;1.236;2023-04-03T03:46:54;8.50;99.90
34768;DHT22;21755;43.608;1.236;2023-04-03T03:49:20;8.50;99.90
34768;DHT22;21755;43.608;1.236;2023-04-03T03:51:46;8.50;99.90
34768;DHT22;21755;43.608;1.236;2023-04-03T03:54:12;8.50;99.90
34768;DHT22;21755;43.608;1.236;2023-04-03T03:56:38;8.50;99.90
34768;DHT22;21755;43.608;1.236;2023-04-03T03:59:03;8.50;99.90
34768;DHT22;21755;43.608;1.236;2023-04-03T04:01:29;8.50;99.90
34768;DHT22;21755;43.608;1.236;2023-04-03T04:03:55;8.50;99.90
34768;DHT22;21755;43.608;1.236;2023-04-03T04:06:21;8.50;99.90
34768;DHT22;21755;43.608;1.236;2023-04-03T04:08:47;8.50;99.90
34768;DHT22;21755;43.608;1.236;2023-04-03T04:11:12;8.50;99.90
34768;DHT22;21755;43.608;1.236;2023-04-03T04:13:38;8.40;99.90
34768;DHT22;21755;43.608;1.236;2023-04-03T04:16:04;8.40;99.90
34768;DHT22;21755;43.608;1.236;2023-04-03T04:18:30;8.50;99.90
34768;DHT22;21755;43.608;1.236;2023-04-03T04:20:56;8.50;99.90
34768;DHT22;21755;43.608;1.236;2023-04-03T04:23:21;8.50;99.90
34768;DHT22;21755;43.608;1.236;2023-04-03T04:25:48;8.50;99.90
34768;DHT22;21755;43.608;1.236;2023-04-03T04:28:14;8.50;99.90
34768;DHT22;21755;43.608;1.236;2023-04-03T04:30:40;8.50;99.90
34768;DHT22;21755;43.608;1.236;2023-04-03T04:33:05;8.50;99.90
34768;DHT22;21755;43.608;1.236;2023-04-03T04:35:32;8.50;99.90
34768;DHT22;21755;43.608;1.236;2023-04-03T04:37:57;8.50;99.90
34768;DHT22;21755;43.608;1.236;2023-04-03T04:40:23;8.50;99.90
34768;DHT22;21755;43.608;1.236;2023-04-03T04:42:49;8.50;99.90
34768;DHT22;21755;43.608;1.236;2023-04-03T04:45:15;8.50;99.90
34768;DHT22;21755;43.608;1.236;2023-04-03T04:47:41;8.50;99.90
34768;DHT22;21755;43.608;1.236;2023-04-03T04:50:07;8.50;99.90
34768;DHT22;21755;43.608;1.236;2023-04-03T04:52:33;8.50;99.90
34768;DHT22;21755;43.608;1.236;2023-04-03T04:54:58;8.50;99.90
34768;DHT22;21755;43.608;1.236;2023-04-03T04:57:25;8.50;99.90
34768;DHT22;21755;43.608;1.236;2023-04-03T04:59:50;8.60;99.90
34768;DHT22;21755;43.608;1.236;2023-04-03T05:02:16;8.60;99.90
34768;DHT22;21755;43.608;1.236;2023-04-03T05:04:42;8.60;99.90
34768;DHT22;21755;43.608;1.236;2023-04-03T05:07:07;8.50;99.90
34768;DHT22;21755;43.608;1.236;2023-04-03T05:09:33;8.60;99.90
34768;DHT22;21755;43.608;1.236;2023-04-03T05:11:59;8.50;99.90
34768;DHT22;21755;43.608;1.236;2023-04-03T05:14:25;8.50;99.90
34768;DHT22;21755;43.608;1.236;2023-04-03T05:16:50;8.50;99.90
34768;DHT22;21755;43.608;1.236;2023-04-03T05:19:19;8.50;99.90
34768;DHT22;21755;43.608;1.236;2023-04-03T05:21:45;8.50;99.90
34768;DHT22;21755;43.608;1.236;2023-04-03T05:24:11;8.60;99.90
34768;DHT22;21755;43.608;1.236;2023-04-03T05:26:37;8.50;99.90
34768;DHT22;21755;43.608;1.236;2023-04-03T05:29:03;8.50;99.90
34768;DHT22;21755;43.608;1.236;2023-04-03T05:31:29;8.50;99.90
34768;DHT22;21755;43.608;1.236;2023-04-03T05:33:55;8.50;99.90
34768;DHT22;21755;43.608;1.236;2023-04-03T05:36:21;8.50;99.90
34768;DHT22;21755;43.608;1.236;2023-04-03T05:38:46;8.50;99.90
34768;DHT22;21755;43.608;1.236;2023-04-03T05:41:12;8.50;99.90
34768;DHT22;21755;43.608;1.236;2023-04-03T05:43:38;8.50;99.90
34768;DHT22;21755;43.608;1.236;2023-04-03T05:46:08;8.50;99.90
34768;DHT22;21755;43.608;1.236;2023-04-03T05:48:34;8.50;99.90
34768;DHT22;21755;43.608;1.236;2023-04-03T05:50:59;8.50;99.90
34768;DHT22;21755;43.608;1.236;2023-04-03T05:53:27;8.50;99.90
34768;DHT22;21755;43.608;1.236;2023-04-03T05:55:53;8.50;99.90
34768;DHT22;21755;43.608;1.236;2023-04-03T05:58:19;8.60;99.90
34768;DHT22;21755;43.608;1.236;2023-04-03T06:00:45;8.60;99.90
34768;DHT22;21755;43.608;1.236;2023-04-03T06:03:11;8.50;99.90
34768;DHT22;21755;43.608;1.236;2023-04-03T06:05:37;8.50;99.90
34768;DHT22;21755;43.608;1.236;2023-04-03T06:08:03;8.60;99.90
34768;DHT22;21755;43.608;1.236;2023-04-03T06:10:28;8.60;99.90
34768;DHT22;21755;43.608;1.236;2023-04-03T06:12:54;8.60;99.90
34768;DHT22;21755;43.608;1.236;2023-04-03T06:15:20;8.60;99.90
34768;DHT22;21755;43.608;1.236;2023-04-03T06:17:46;8.60;99.90
34768;DHT22;21755;43.608;1.236;2023-04-03T06:20:12;8.60;99.90
34768;DHT22;21755;43.608;1.236;2023-04-03T06:22:37;8.60;99.90
34768;DHT22;21755;43.608;1.236;2023-04-03T06:25:03;8.60;99.90
34768;DHT22;21755;43.608;1.236;2023-04-03T06:27:30;8.60;99.90
34768;DHT22;21755;43.608;1.236;2023-04-03T06:29:55;8.60;99.90
34768;DHT22;21755;43.608;1.236;2023-04-03T06:32:21;8.60;99.90
34768;DHT22;21755;43.608;1.236;2023-04-03T06:34:47;8.70;99.90
34768;DHT22;21755;43.608;1.236;2023-04-03T06:37:20;8.70;99.90
34768;DHT22;21755;43.608;1.236;2023-04-03T06:39:46;8.70;99.90
34768;DHT22;21755;43.608;1.236;2023-04-03T06:42:11;8.70;99.90
34768;DHT22;21755;43.608;1.236;2023-04-03T06:44:37;8.70;99.90
34768;DHT22;21755;43.608;1.236;2023-04-03T06:47:03;8.70;99.90
34768;DHT22;21755;43.608;1.236;2023-04-03T06:49:28;8.80;99.90
34768;DHT22;21755;43.608;1.236;2023-04-03T06:51:54;8.80;99.90
34768;DHT22;21755;43.608;1.236;2023-04-03T06:54:21;8.80;99.90
34768;DHT22;21755;43.608;1.236;2023-04-03T06:56:47;8.80;99.90
34768;DHT22;21755;43.608;1.236;2023-04-03T06:59:13;8.80;99.90
34768;DHT22;21755;43.608;1.236;2023-04-03T07:01:42;8.80;99.90
34768;DHT22;21755;43.608;1.236;2023-04-03T07:04:08;8.90;99.90
34768;DHT22;21755;43.608;1.236;2023-04-03T07:06:34;8.90;99.90
34768;DHT22;21755;43.608;1.236;2023-04-03T07:08:59;8.90;99.90
34768;DHT22;21755;43.608;1.236;2023-04-03T07:11:25;9.00;99.90
34768;DHT22;21755;43.608;1.236;2023-04-03T07:13:51;9.00;99.90
34768;DHT22;21755;43.608;1.236;2023-04-03T07:16:17;9.00;99.90
34768;DHT22;21755;43.608;1.236;2023-04-03T07:18:43;9.10;99.90
34768;DHT22;21755;43.608;1.236;2023-04-03T07:21:09;9.10;99.90
34768;DHT22;21755;43.608;1.236;2023-04-03T07:23:35;9.20;99.90
34768;DHT22;21755;43.608;1.236;2023-04-03T07:26:00;9.10;99.90
34768;DHT22;21755;43.608;1.236;2023-04-03T07:28:26;9.10;99.90
34768;DHT22;21755;43.608;1.236;2023-04-03T07:30:53;9.20;99.90
34768;DHT22;21755;43.608;1.236;2023-04-03T07:33:19;9.20;99.90
34768;DHT22;21755;43.608;1.236;2023-04-03T07:35:45;9.30;99.90
34768;DHT22;21755;43.608;1.236;2023-04-03T07:38:11;9.30;99.90
34768;DHT22;21755;43.608;1.236;2023-04-03T07:40:37;9.30;99.90
34768;DHT22;21755;43.608;1.236;2023-04-03T07:43:03;9.30;99.90
34768;DHT22;21755;43.608;1.236;2023-04-03T07:45:29;9.20;99.90
34768;DHT22;21755;43.608;1.236;2023-04-03T07:47:55;9.20;99.90
34768;DHT22;21755;43.608;1.236;2023-04-03T07:50:21;9.20;99.90
34768;DHT22;21755;43.608;1.236;2023-04-03T07:52:47;9.20;99.90
34768;DHT22;21755;43.608;1.236;2023-04-03T07:55:13;9.20;99.90
34768;DHT22;21755;43.608;1.236;2023-04-03T07:57:38;9.20;99.90
34768;DHT22;21755;43.608;1.236;2023-04-03T08:00:05;9.20;99.90
34768;DHT22;21755;43.608;1.236;2023-04-03T08:02:31;9.20;99.90
34768;DHT22;21755;43.608;1.236;2023-04-03T08:04:57;9.30;99.90
34768;DHT22;21755;43.608;1.236;2023-04-03T08:07:23;9.40;99.90
34768;DHT22;21755;43.608;1.236;2023-04-03T08:09:49;9.40;99.90
34768;DHT22;21755;43.608;1.236;2023-04-03T08:12:15;9.30;99.90
34768;DHT22;21755;43.608;1.236;2023-04-03T08:14:40;9.40;99.90
34768;DHT22;21755;43.608;1.236;2023-04-03T08:17:06;9.40;99.90
34768;DHT22;21755;43.608;1.236;2023-04-03T08:19:34;9.40;99.90
34768;DHT22;21755;43.608;1.236;2023-04-03T08:22:00;9.50;99.90
34768;DHT22;21755;43.608;1.236;2023-04-03T08:24:28;9.50;99.90
34768;DHT22;21755;43.608;1.236;2023-04-03T08:26:54;9.60;99.90
34768;DHT22;21755;43.608;1.236;2023-04-03T08:29:20;9.60;99.90
34768;DHT22;21755;43.608;1.236;2023-04-03T08:31:46;9.50;99.90
34768;DHT22;21755;43.608;1.236;2023-04-03T08:34:12;9.50;99.90
34768;DHT22;21755;43.608;1.236;2023-04-03T08:36:39;9.60;99.90
34768;DHT22;21755;43.608;1.236;2023-04-03T08:39:05;9.60;99.90
34768;DHT22;21755;43.608;1.236;2023-04-03T08:41:33;9.60;99.90
34768;DHT22;21755;43.608;1.236;2023-04-03T08:49:42;9.60;99.90
34768;DHT22;21755;43.608;1.236;2023-04-03T08:52:01;9.60;99.90
34768;DHT22;21755;43.608;1.236;2023-04-03T08:54:30;9.60;99.90
34768;DHT22;21755;43.608;1.236;2023-04-03T08:56:56;9.60;99.90
34768;DHT22;21755;43.608;1.236;2023-04-03T08:59:28;9.60;99.90
34768;DHT22;21755;43.608;1.236;2023-04-03T09:01:56;9.60;99.90
34768;DHT22;21755;43.608;1.236;2023-04-03T09:04:32;9.60;99.90
34768;DHT22;21755;43.608;1.236;2023-04-03T09:07:02;9.60;99.90
34768;DHT22;21755;43.608;1.236;2023-04-03T09:09:36;9.70;99.90
34768;DHT22;21755;43.608;1.236;2023-04-03T09:20:06;10.20;99.90
34768;DHT22;21755;43.608;1.236;2023-04-03T09:22:35;10.50;99.90
34768;DHT22;21755;43.608;1.236;2023-04-03T09:25:12;10.60;99.90
34768;DHT22;21755;43.608;1.236;2023-04-03T09:27:39;10.70;99.90
34768;DHT22;21755;43.608;1.236;2023-04-03T09:30:04;10.70;99.90
34768;DHT22;21755;43.608;1.236;2023-04-03T09:32:33;11.00;99.90
34768;DHT22;21755;43.608;1.236;2023-04-03T09:35:01;11.10;99.90
34768;DHT22;21755;43.608;1.236;2023-04-03T09:37:37;11.30;99.90
34768;DHT22;21755;43.608;1.236;2023-04-03T09:40:04;11.00;99.90
34768;DHT22;21755;43.608;1.236;2023-04-03T09:42:30;11.40;99.90
34768;DHT22;21755;43.608;1.236;2023-04-03T09:45:00;11.50;99.90
34768;DHT22;21755;43.608;1.236;2023-04-03T09:47:33;11.40;99.90
34768;DHT22;21755;43.608;1.236;2023-04-03T09:52:41;11.40;99.90
34768;DHT22;21755;43.608;1.236;2023-04-03T09:55:13;11.80;99.90
34768;DHT22;21755;43.608;1.236;2023-04-03T09:57:39;11.80;99.90
34768;DHT22;21755;43.608;1.236;2023-04-03T10:00:05;11.70;99.90
34768;DHT22;21755;43.608;1.236;2023-04-03T10:02:40;11.50;99.90
34768;DHT22;21755;43.608;1.236;2023-04-03T10:07:52;11.50;99.90
34768;DHT22;21755;43.608;1.236;2023-04-03T10:10:19;11.60;99.90
34768;DHT22;21755;43.608;1.236;2023-04-03T10:12:47;11.60;99.90
34768;DHT22;21755;43.608;1.236;2023-04-03T10:15:14;11.80;99.90
34768;DHT22;21755;43.608;1.236;2023-04-03T10:17:47;11.80;99.90
34768;DHT22;21755;43.608;1.236;2023-04-03T10:28:01;11.80;99.90
34768;DHT22;21755;43.608;1.236;2023-04-03T10:38:22;11.90;99.90
34768;DHT22;21755;43.608;1.236;2023-04-03T10:46:00;12.00;99.90
34768;DHT22;21755;43.608;1.236;2023-04-03T10:53:56;12.20;99.90
34768;DHT22;21755;43.608;1.236;2023-04-03T10:58:53;12.30;99.90
34768;DHT22;21755;43.608;1.236;2023-04-03T11:01:33;12.30;99.90
34768;DHT22;21755;43.608;1.236;2023-04-03T11:03:59;12.20;99.90
34768;DHT22;21755;43.608;1.236;2023-04-03T11:06:30;12.30;99.90
34768;DHT22;21755;43.608;1.236;2023-04-03T11:09:00;12.30;99.90
34768;DHT22;21755;43.608;1.236;2023-04-03T11:11:35;12.10;99.90
34768;DHT22;21755;43.608;1.236;2023-04-03T11:14:21;12.10;99.90
34768;DHT22;21755;43.608;1.236;2023-04-03T11:16:51;12.10;99.90
34768;DHT22;21755;43.608;1.236;2023-04-03T11:19:28;12.10;99.90
34768;DHT22;21755;43.608;1.236;2023-04-03T11:21:57;12.20;99.90
34768;DHT22;21755;43.608;1.236;2023-04-03T11:24:27;12.10;99.90
34768;DHT22;21755;43.608;1.236;2023-04-03T11:26:54;12.10;99.90
34768;DHT22;21755;43.608;1.236;2023-04-03T11:29:24;12.20;99.90
34768;DHT22;21755;43.608;1.236;2023-04-03T11:34:31;12.20;99.90
34768;DHT22;21755;43.608;1.236;2023-04-03T11:36:59;12.20;99.90
34768;DHT22;21755;43.608;1.236;2023-04-03T11:39:33;12.20;99.90
34768;DHT22;21755;43.608;1.236;2023-04-03T11:44:46;12.50;99.90
34768;DHT22;21755;43.608;1.236;2023-04-03T11:47:12;12.40;99.90
34768;DHT22;21755;43.608;1.236;2023-04-03T11:50:02;12.40;99.90
34768;DHT22;21755;43.608;1.236;2023-04-03T12:21:21;12.80;99.90
34768;DHT22;21755;43.608;1.236;2023-04-03T12:23:59;13.00;99.90
34768;DHT22;21755;43.608;1.236;2023-04-03T12:26:27;13.10;99.90
34768;DHT22;21755;43.608;1.236;2023-04-03T12:28:54;13.20;99.90
34768;DHT22;21755;43.608;1.236;2023-04-03T12:31:22;13.10;99.90
34768;DHT22;21755;43.608;1.236;2023-04-03T12:34:13;13.10;99.90
34768;DHT22;21755;43.608;1.236;2023-04-03T12:36:51;13.20;99.90
34768;DHT22;21755;43.608;1.236;2023-04-03T12:39:44;13.10;99.90
34768;DHT22;21755;43.608;1.236;2023-04-03T12:42:24;13.00;99.90
34768;DHT22;21755;43.608;1.236;2023-04-03T12:47:26;13.10;99.90
34768;DHT22;21755;43.608;1.236;2023-04-03T12:49:53;13.10;99.90
34768;DHT22;21755;43.608;1.236;2023-04-03T12:52:22;13.10;99.90
34768;DHT22;21755;43.608;1.236;2023-04-03T12:54:51;12.90;99.90
34768;DHT22;21755;43.608;1.236;2023-04-03T12:59:42;13.00;99.90
34768;DHT22;21755;43.608;1.236;2023-04-03T13:02:24;13.10;99.90
34768;DHT22;21755;43.608;1.236;2023-04-03T13:04:51;13.00;99.90
34768;DHT22;21755;43.608;1.236;2023-04-03T13:07:28;13.10;99.90
34768;DHT22;21755;43.608;1.236;2023-04-03T13:09:57;13.20;99.90
34768;DHT22;21755;43.608;1.236;2023-04-03T13:12:23;13.30;99.90
34768;DHT22;21755;43.608;1.236;2023-04-03T13:14:55;13.40;99.90
34768;DHT22;21755;43.608;1.236;2023-04-03T13:17:22;13.40;99.90
34768;DHT22;21755;43.608;1.236;2023-04-03T13:19:48;13.40;99.90
34768;DHT22;21755;43.608;1.236;2023-04-03T13:24:58;13.40;99.90
34768;DHT22;21755;43.608;1.236;2023-04-03T13:27:25;13.40;99.90
34768;DHT22;21755;43.608;1.236;2023-04-03T13:29:52;13.40;99.90
34768;DHT22;21755;43.608;1.236;2023-04-03T13:32:22;13.60;99.90
34768;DHT22;21755;43.608;1.236;2023-04-03T13:34:49;13.60;99.90
34768;DHT22;21755;43.608;1.236;2023-04-03T13:37:25;13.60;99.90
34768;DHT22;21755;43.608;1.236;2023-04-03T13:39:59;13.50;99.90
34768;DHT22;21755;43.608;1.236;2023-04-03T13:42:26;13.60;99.90
34768;DHT22;21755;43.608;1.236;2023-04-03T13:47:38;13.50;99.90
34768;DHT22;21755;43.608;1.236;2023-04-03T13:50:13;13.60;99.90
34768;DHT22;21755;43.608;1.236;2023-04-03T13:52:45;13.70;99.90
34768;DHT22;21755;43.608;1.236;2023-04-03T13:55:34;13.80;99.90
34768;DHT22;21755;43.608;1.236;2023-04-03T13:57:58;13.80;99.90
34768;DHT22;21755;43.608;1.236;2023-04-03T14:02:54;13.50;99.90
34768;DHT22;21755;43.608;1.236;2023-04-03T14:05:21;13.70;99.90
34768;DHT22;21755;43.608;1.236;2023-04-03T14:07:48;13.60;99.90
34768;DHT22;21755;43.608;1.236;2023-04-03T14:10:14;13.70;99.90
34768;DHT22;21755;43.608;1.236;2023-04-03T14:12:40;13.70;99.90
34768;DHT22;21755;43.608;1.236;2023-04-03T14:15:23;13.60;99.90
34768;DHT22;21755;43.608;1.236;2023-04-03T14:17:50;13.50;99.90
34768;DHT22;21755;43.608;1.236;2023-04-03T14:20:18;13.80;99.90
34768;DHT22;21755;43.608;1.236;2023-04-03T14:22:45;13.80;99.90
34768;DHT22;21755;43.608;1.236;2023-04-03T14:25:11;13.60;99.90
34768;DHT22;21755;43.608;1.236;2023-04-03T14:27:45;13.50;99.90
34768;DHT22;21755;43.608;1.236;2023-04-03T14:30:13;13.30;99.90
34768;DHT22;21755;43.608;1.236;2023-04-03T14:32:39;13.20;99.90
34768;DHT22;21755;43.608;1.236;2023-04-03T14:35:05;13.20;99.90
34768;DHT22;21755;43.608;1.236;2023-04-03T14:37:32;13.20;99.90
34768;DHT22;21755;43.608;1.236;2023-04-03T14:39:58;13.10;99.90
34768;DHT22;21755;43.608;1.236;2023-04-03T14:42:26;13.20;99.90
34768;DHT22;21755;43.608;1.236;2023-04-03T14:44:52;13.20;99.90
34768;DHT22;21755;43.608;1.236;2023-04-03T14:47:19;13.20;99.90
34768;DHT22;21755;43.608;1.236;2023-04-03T14:49:46;13.30;99.90
34768;DHT22;21755;43.608;1.236;2023-04-03T14:52:17;13.20;99.90
34768;DHT22;21755;43.608;1.236;2023-04-03T14:54:43;13.20;99.90
34768;DHT22;21755;43.608;1.236;2023-04-03T14:57:09;13.20;99.90
34768;DHT22;21755;43.608;1.236;2023-04-03T14:59:37;13.20;99.90
34768;DHT22;21755;43.608;1.236;2023-04-03T15:02:04;13.30;99.90
34768;DHT22;21755;43.608;1.236;2023-04-03T15:04:35;13.30;99.90
34768;DHT22;21755;43.608;1.236;2023-04-03T15:07:00;13.30;99.90
34768;DHT22;21755;43.608;1.236;2023-04-03T15:09:26;13.30;99.90
34768;DHT22;21755;43.608;1.236;2023-04-03T15:11:53;13.10;99.90
34768;DHT22;21755;43.608;1.236;2023-04-03T15:14:19;13.00;99.90
34768;DHT22;21755;43.608;1.236;2023-04-03T15:16:45;13.00;99.90
34768;DHT22;21755;43.608;1.236;2023-04-03T15:19:11;13.00;99.90
34768;DHT22;21755;43.608;1.236;2023-04-03T15:21:37;13.10;99.90
34768;DHT22;21755;43.608;1.236;2023-04-03T15:24:03;13.20;99.90
34768;DHT22;21755;43.608;1.236;2023-04-03T15:26:29;13.20;99.90
34768;DHT22;21755;43.608;1.236;2023-04-03T15:28:55;13.30;99.90
34768;DHT22;21755;43.608;1.236;2023-04-03T15:31:21;13.50;99.90
34768;DHT22;21755;43.608;1.236;2023-04-03T15:33:46;13.60;99.90
34768;DHT22;21755;43.608;1.236;2023-04-03T15:36:12;13.70;99.90
34768;DHT22;21755;43.608;1.236;2023-04-03T15:38:38;13.70;99.90
34768;DHT22;21755;43.608;1.236;2023-04-03T15:41:03;13.60;99.90
34768;DHT22;21755;43.608;1.236;2023-04-03T15:43:30;13.70;99.90
34768;DHT22;21755;43.608;1.236;2023-04-03T15:45:56;13.70;99.90
34768;DHT22;21755;43.608;1.236;2023-04-03T15:48:26;13.60;99.90
34768;DHT22;21755;43.608;1.236;2023-04-03T15:50:52;13.80;99.90
34768;DHT22;21755;43.608;1.236;2023-04-03T15:53:18;13.80;99.90
34768;DHT22;21755;43.608;1.236;2023-04-03T15:55:44;13.70;99.90
34768;DHT22;21755;43.608;1.236;2023-04-03T15:58:09;13.70;99.90
34768;DHT22;21755;43.608;1.236;2023-04-03T16:00:36;13.70;99.90
34768;DHT22;21755;43.608;1.236;2023-04-03T16:03:06;13.70;99.90
34768;DHT22;21755;43.608;1.236;2023-04-03T16:05:33;13.80;99.90
34768;DHT22;21755;43.608;1.236;2023-04-03T16:08:00;13.70;99.90
34768;DHT22;21755;43.608;1.236;2023-04-03T16:10:26;13.90;99.90
34768;DHT22;21755;43.608;1.236;2023-04-03T16:12:51;14.00;99.90
34768;DHT22;21755;43.608;1.236;2023-04-03T16:15:17;14.00;99.90
34768;DHT22;21755;43.608;1.236;2023-04-03T16:17:43;13.80;99.90
34768;DHT22;21755;43.608;1.236;2023-04-03T16:20:09;13.80;99.90
34768;DHT22;21755;43.608;1.236;2023-04-03T16:22:35;13.90;99.90
34768;DHT22;21755;43.608;1.236;2023-04-03T16:25:01;14.10;99.90
34768;DHT22;21755;43.608;1.236;2023-04-03T16:27:26;14.30;99.90
34768;DHT22;21755;43.608;1.236;2023-04-03T16:29:54;14.30;99.90
34768;DHT22;21755;43.608;1.236;2023-04-03T16:32:20;14.30;99.90
34768;DHT22;21755;43.608;1.236;2023-04-03T16:34:46;14.30;99.90
34768;DHT22;21755;43.608;1.236;2023-04-03T16:37:12;14.10;99.90
34768;DHT22;21755;43.608;1.236;2023-04-03T16:39:37;13.90;99.90
34768;DHT22;21755;43.608;1.236;2023-04-03T16:42:03;13.80;99.90
34768;DHT22;21755;43.608;1.236;2023-04-03T16:44:29;13.90;99.90
34768;DHT22;21755;43.608;1.236;2023-04-03T16:46:54;13.80;99.90
34768;DHT22;21755;43.608;1.236;2023-04-03T16:49:20;13.70;99.90
34768;DHT22;21755;43.608;1.236;2023-04-03T16:51:47;13.70;99.90
34768;DHT22;21755;43.608;1.236;2023-04-03T16:54:13;13.70;99.90
34768;DHT22;21755;43.608;1.236;2023-04-03T16:56:39;13.70;99.90
34768;DHT22;21755;43.608;1.236;2023-04-03T16:59:05;13.60;99.90
34768;DHT22;21755;43.608;1.236;2023-04-03T17:01:31;13.60;99.90
34768;DHT22;21755;43.608;1.236;2023-04-03T17:03:57;13.70;99.90
34768;DHT22;21755;43.608;1.236;2023-04-03T17:06:22;13.70;99.90
34768;DHT22;21755;43.608;1.236;2023-04-03T17:08:49;13.70;99.90
34768;DHT22;21755;43.608;1.236;2023-04-03T17:11:15;13.70;99.90
34768;DHT22;21755;43.608;1.236;2023-04-03T17:13:41;13.80;99.90
34768;DHT22;21755;43.608;1.236;2023-04-03T17:16:08;13.60;99.90
34768;DHT22;21755;43.608;1.236;2023-04-03T17:18:35;13.50;99.90